sensor_id;sensor_type;location;lat;lon;timestamp;P1;durP1;ratioP1;P2;durP2;ratioP2
17648;SDS011;8943;51.110;-4.158;2022-10-13T00:43:52;7.30;;;3.50;;
17648;SDS011;8943;51.110;-4.158;2022-10-13T00:46:36;10.97;;;4.17;;
17648;SDS011;8943;51.110;-4.158;2022-10-13T00:53:08;11.43;;;3.10;;
17648;SDS011;8943;51.110;-4.158;2022-10-13T00:56:29;12.70;;;3.67;;
17648;SDS011;8943;51.110;-4.158;2022-10-13T00:59:19;10.50;;;3.70;;
17648;SDS011;8943;51.110;-4.158;2022-10-13T01:02:13;10.00;;;3.60;;
17648;SDS011;8943;51.110;-4.158;2022-10-13T01:05:07;45.23;;;5.27;;
17648;SDS011;8943;51.110;-4.158;2022-10-13T01:08:18;10.07;;;3.93;;
17648;SDS011;8943;51.110;-4.158;2022-10-13T01:26:46;27.47;;;6.57;;
17648;SDS011;8943;51.110;-4.158;2022-10-13T06:33:02;26.53;;;4.80;;
17648;SDS011;8943;51.110;-4.158;2022-10-13T06:35:31;24.47;;;6.23;;
17648;SDS011;8943;51.110;-4.158;2022-10-13T06:38:00;16.30;;;4.93;;
17648;SDS011;8943;51.110;-4.158;2022-10-13T06:40:29;20.40;;;4.80;;
17648;SDS011;8943;51.110;-4.158;2022-10-13T06:42:57;43.60;;;6.33;;
17648;SDS011;8943;51.110;-4.158;2022-10-13T07:52:40;23.53;;;4.63;;
17648;SDS011;8943;51.110;-4.158;2022-10-13T07:55:09;30.70;;;5.27;;
17648;SDS011;8943;51.110;-4.158;2022-10-13T08:01:13;23.70;;;4.97;;
17648;SDS011;8943;51.110;-4.158;2022-10-13T08:03:45;20.37;;;5.20;;
17648;SDS011;8943;51.110;-4.158;2022-10-13T08:06:24;9.17;;;4.53;;
17648;SDS011;8943;51.110;-4.158;2022-10-13T08:08:59;140.70;;;13.80;;
17648;SDS011;8943;51.110;-4.158;2022-10-13T08:11:43;175.60;;;12.17;;
17648;SDS011;8943;51.110;-4.158;2022-10-13T08:14:12;23.67;;;5.37;;
17648;SDS011;8943;51.110;-4.158;2022-10-13T08:16:59;46.33;;;6.47;;
17648;SDS011;8943;51.110;-4.158;2022-10-13T08:19:46;21.40;;;4.83;;
17648;SDS011;8943;51.110;-4.158;2022-10-13T08:22:52;106.67;;;7.50;;
17648;SDS011;8943;51.110;-4.158;2022-10-13T08:26:04;64.13;;;6.30;;
17648;SDS011;8943;51.110;-4.158;2022-10-13T08:28:44;56.67;;;6.00;;
17648;SDS011;8943;51.110;-4.158;2022-10-13T08:31:31;73.57;;;7.07;;
17648;SDS011;8943;51.110;-4.158;2022-10-13T08:34:31;56.23;;;7.23;;
17648;SDS011;8943;51.110;-4.158;2022-10-13T08:37:05;22.50;;;4.57;;
17648;SDS011;8943;51.110;-4.158;2022-10-13T08:39:33;24.90;;;4.53;;
17648;SDS011;8943;51.110;-4.158;2022-10-13T08:42:10;6.40;;;3.33;;
17648;SDS011;8943;51.110;-4.158;2022-10-13T08:44:44;40.77;;;4.83;;
17648;SDS011;8943;51.110;-4.158;2022-10-13T08:48:25;16.70;;;4.20;;
17648;SDS011;8943;51.110;-4.158;2022-10-13T08:51:18;14.60;;;3.77;;
17648;SDS011;8943;51.110;-4.158;2022-10-13T08:55:53;7.43;;;3.70;;
17648;SDS011;8943;51.110;-4.158;2022-10-13T08:57:39;6.37;;;4.37;;
17648;SDS011;8943;51.110;-4.158;2022-10-13T09:00:10;15.83;;;4.97;;
17648;SDS011;8943;51.110;-4.158;2022-10-13T09:02:58;8.83;;;5.60;;
17648;SDS011;8943;51.110;-4.158;2022-10-13T09:05:42;11.77;;;9.03;;
17648;SDS011;8943;51.110;-4.158;2022-10-13T09:08:35;11.00;;;4.57;;
17648;SDS011;8943;51.110;-4.158;2022-10-13T09:11:08;15.13;;;4.40;;
17648;SDS011;8943;51.110;-4.158;2022-10-13T09:36:35;7.10;;;4.50;;
17648;SDS011;8943;51.110;-4.158;2022-10-13T09:39:41;8.53;;;4.17;;
17648;SDS011;8943;51.110;-4.158;2022-10-13T09:42:21;7.50;;;3.87;;
17648;SDS011;8943;51.110;-4.158;2022-10-13T09:45:01;5.27;;;4.10;;
17648;SDS011;8943;51.110;-4.158;2022-10-13T09:50:37;5.50;;;4.00;;
17648;SDS011;8943;51.110;-4.158;2022-10-13T09:53:16;8.40;;;5.60;;
17648;SDS011;8943;51.110;-4.158;2022-10-13T09:56:05;7.57;;;4.20;;
17648;SDS011;8943;51.110;-4.158;2022-10-13T09:58:36;5.43;;;4.27;;
17648;SDS011;8943;51.110;-4.158;2022-10-13T10:01:14;9.83;;;4.57;;
17648;SDS011;8943;51.110;-4.158;2022-10-13T10:03:47;5.30;;;4.00;;
17648;SDS011;8943;51.110;-4.158;2022-10-13T10:06:19;6.27;;;4.40;;
17648;SDS011;8943;51.110;-4.158;2022-10-13T10:08:54;6.23;;;4.00;;
17648;SDS011;8943;51.110;-4.158;2022-10-13T10:11:32;4.47;;;3.47;;
17648;SDS011;8943;51.110;-4.158;2022-10-13T10:14:10;5.47;;;4.00;;
17648;SDS011;8943;51.110;-4.158;2022-10-13T10:16:45;6.23;;;4.10;;
17648;SDS011;8943;51.110;-4.158;2022-10-13T10:19:28;6.13;;;4.17;;
17648;SDS011;8943;51.110;-4.158;2022-10-13T10:22:19;12.83;;;5.87;;
17648;SDS011;8943;51.110;-4.158;2022-10-13T10:28:26;4.07;;;3.40;;
17648;SDS011;8943;51.110;-4.158;2022-10-13T10:31:14;5.80;;;4.40;;
17648;SDS011;8943;51.110;-4.158;2022-10-13T10:33:56;5.23;;;3.20;;
17648;SDS011;8943;51.110;-4.158;2022-10-13T10:36:33;7.87;;;3.07;;
17648;SDS011;8943;51.110;-4.158;2022-10-13T10:39:16;9.37;;;5.87;;
17648;SDS011;8943;51.110;-4.158;2022-10-13T10:41:54;6.30;;;3.60;;
17648;SDS011;8943;51.110;-4.158;2022-10-13T10:44:33;7.27;;;3.47;;
17648;SDS011;8943;51.110;-4.158;2022-10-13T10:47:22;10.50;;;4.77;;
17648;SDS011;8943;51.110;-4.158;2022-10-13T10:49:56;6.23;;;3.87;;
17648;SDS011;8943;51.110;-4.158;2022-10-13T10:52:36;6.13;;;2.77;;
17648;SDS011;8943;51.110;-4.158;2022-10-13T10:55:24;4.90;;;3.20;;
17648;SDS011;8943;51.110;-4.158;2022-10-13T10:58:19;7.40;;;4.13;;
17648;SDS011;8943;51.110;-4.158;2022-10-13T11:01:05;3.17;;;2.60;;
17648;SDS011;8943;51.110;-4.158;2022-10-13T11:04:32;6.00;;;2.90;;
17648;SDS011;8943;51.110;-4.158;2022-10-13T11:07:09;5.97;;;2.80;;
17648;SDS011;8943;51.110;-4.158;2022-10-13T11:13:05;5.37;;;2.80;;
17648;SDS011;8943;51.110;-4.158;2022-10-13T11:15:51;7.43;;;2.70;;
17648;SDS011;8943;51.110;-4.158;2022-10-13T11:24:46;8.93;;;2.70;;
17648;SDS011;8943;51.110;-4.158;2022-10-13T11:27:24;4.73;;;2.40;;
17648;SDS011;8943;51.110;-4.158;2022-10-13T11:29:56;4.30;;;2.10;;
17648;SDS011;8943;51.110;-4.158;2022-10-13T11:32:42;7.70;;;2.07;;
17648;SDS011;8943;51.110;-4.158;2022-10-13T11:35:24;6.10;;;2.00;;
17648;SDS011;8943;51.110;-4.158;2022-10-13T11:37:59;7.03;;;2.33;;
17648;SDS011;8943;51.110;-4.158;2022-10-13T11:40:53;5.07;;;2.53;;
17648;SDS011;8943;51.110;-4.158;2022-10-13T11:43:34;4.07;;;2.70;;
17648;SDS011;8943;51.110;-4.158;2022-10-13T11:46:18;5.37;;;2.40;;
17648;SDS011;8943;51.110;-4.158;2022-10-13T11:48:56;8.70;;;2.63;;
17648;SDS011;8943;51.110;-4.158;2022-10-13T11:51:50;5.77;;;2.07;;
17648;SDS011;8943;51.110;-4.158;2022-10-13T11:54:33;8.30;;;1.60;;
17648;SDS011;8943;51.110;-4.158;2022-10-13T11:57:15;7.93;;;1.87;;
17648;SDS011;8943;51.110;-4.158;2022-10-13T11:59:45;5.37;;;1.33;;
17648;SDS011;8943;51.110;-4.158;2022-10-13T12:02:16;6.20;;;1.53;;
17648;SDS011;8943;51.110;-4.158;2022-10-13T12:04:58;8.13;;;1.83;;
17648;SDS011;8943;51.110;-4.158;2022-10-13T12:07:29;6.23;;;1.50;;
17648;SDS011;8943;51.110;-4.158;2022-10-13T12:10:02;6.57;;;1.73;;
17648;SDS011;8943;51.110;-4.158;2022-10-13T12:12:36;5.43;;;1.53;;
17648;SDS011;8943;51.110;-4.158;2022-10-13T12:15:24;9.63;;;1.80;;
17648;SDS011;8943;51.110;-4.158;2022-10-13T12:17:58;4.60;;;1.67;;
17648;SDS011;8943;51.110;-4.158;2022-10-13T12:20:27;8.57;;;1.80;;
17648;SDS011;8943;51.110;-4.158;2022-10-13T12:22:57;6.90;;;1.83;;
17648;SDS011;8943;51.110;-4.158;2022-10-13T12:25:28;8.23;;;1.93;;
17648;SDS011;8943;51.110;-4.158;2022-10-13T12:27:59;13.00;;;2.37;;
17648;SDS011;8943;51.110;-4.158;2022-10-13T12:30:31;6.60;;;1.77;;
17648;SDS011;8943;51.110;-4.158;2022-10-13T12:33:16;3.77;;;1.60;;
17648;SDS011;8943;51.110;-4.158;2022-10-13T12:35:49;2.87;;;1.63;;
17648;SDS011;8943;51.110;-4.158;2022-10-13T12:38:17;6.57;;;1.23;;
17648;SDS011;8943;51.110;-4.158;2022-10-13T12:40:47;6.33;;;1.37;;
17648;SDS011;8943;51.110;-4.158;2022-10-13T12:43:19;6.07;;;1.57;;
17648;SDS011;8943;51.110;-4.158;2022-10-13T12:45:52;6.07;;;1.40;;
17648;SDS011;8943;51.110;-4.158;2022-10-13T12:51:37;2.80;;;1.13;;
17648;SDS011;8943;51.110;-4.158;2022-10-13T12:54:07;4.33;;;1.53;;
17648;SDS011;8943;51.110;-4.158;2022-10-13T12:57:01;6.07;;;1.40;;
17648;SDS011;8943;51.110;-4.158;2022-10-13T12:59:42;4.30;;;1.20;;
17648;SDS011;8943;51.110;-4.158;2022-10-13T13:02:18;7.40;;;1.80;;
17648;SDS011;8943;51.110;-4.158;2022-10-13T13:04:54;7.30;;;1.83;;
17648;SDS011;8943;51.110;-4.158;2022-10-13T13:07:42;5.50;;;1.77;;
17648;SDS011;8943;51.110;-4.158;2022-10-13T13:10:20;5.17;;;1.20;;
17648;SDS011;8943;51.110;-4.158;2022-10-13T13:12:50;6.50;;;1.47;;
17648;SDS011;8943;51.110;-4.158;2022-10-13T13:15:31;6.63;;;1.70;;
17648;SDS011;8943;51.110;-4.158;2022-10-13T13:21:03;4.97;;;1.37;;
17648;SDS011;8943;51.110;-4.158;2022-10-13T13:23:34;4.63;;;1.40;;
17648;SDS011;8943;51.110;-4.158;2022-10-13T13:26:04;5.03;;;1.33;;
17648;SDS011;8943;51.110;-4.158;2022-10-13T13:28:39;5.73;;;1.60;;
17648;SDS011;8943;51.110;-4.158;2022-10-13T13:31:13;10.83;;;1.43;;
17648;SDS011;8943;51.110;-4.158;2022-10-13T13:33:43;4.80;;;1.60;;
17648;SDS011;8943;51.110;-4.158;2022-10-13T13:36:13;5.40;;;1.60;;
17648;SDS011;8943;51.110;-4.158;2022-10-13T13:38:47;5.20;;;1.67;;
17648;SDS011;8943;51.110;-4.158;2022-10-13T13:41:16;6.70;;;1.63;;
17648;SDS011;8943;51.110;-4.158;2022-10-13T13:43:48;5.60;;;1.70;;
17648;SDS011;8943;51.110;-4.158;2022-10-13T13:46:18;7.43;;;1.53;;
17648;SDS011;8943;51.110;-4.158;2022-10-13T13:48:53;6.77;;;1.67;;
17648;SDS011;8943;51.110;-4.158;2022-10-13T13:51:23;3.63;;;1.50;;
17648;SDS011;8943;51.110;-4.158;2022-10-13T13:53:59;6.97;;;1.57;;
17648;SDS011;8943;51.110;-4.158;2022-10-13T13:56:34;8.37;;;1.80;;
17648;SDS011;8943;51.110;-4.158;2022-10-13T13:59:04;5.97;;;1.60;;
17648;SDS011;8943;51.110;-4.158;2022-10-13T14:01:33;3.87;;;1.10;;
17648;SDS011;8943;51.110;-4.158;2022-10-13T14:04:02;6.63;;;1.60;;
17648;SDS011;8943;51.110;-4.158;2022-10-13T14:06:31;3.50;;;1.70;;
17648;SDS011;8943;51.110;-4.158;2022-10-13T14:09:01;2.83;;;1.33;;
17648;SDS011;8943;51.110;-4.158;2022-10-13T14:11:31;5.07;;;1.30;;
17648;SDS011;8943;51.110;-4.158;2022-10-13T14:14:00;5.93;;;1.53;;
17648;SDS011;8943;51.110;-4.158;2022-10-13T14:16:30;3.03;;;1.00;;
17648;SDS011;8943;51.110;-4.158;2022-10-13T14:18:58;2.97;;;1.23;;
17648;SDS011;8943;51.110;-4.158;2022-10-13T14:21:27;5.33;;;1.47;;
17648;SDS011;8943;51.110;-4.158;2022-10-13T14:23:57;6.47;;;1.40;;
17648;SDS011;8943;51.110;-4.158;2022-10-13T14:26:31;3.00;;;1.40;;
17648;SDS011;8943;51.110;-4.158;2022-10-13T14:29:02;2.83;;;1.27;;
17648;SDS011;8943;51.110;-4.158;2022-10-13T14:31:32;4.03;;;1.27;;
17648;SDS011;8943;51.110;-4.158;2022-10-13T14:34:03;5.67;;;1.67;;
17648;SDS011;8943;51.110;-4.158;2022-10-13T14:36:31;2.73;;;0.83;;
17648;SDS011;8943;51.110;-4.158;2022-10-13T14:39:01;3.60;;;1.03;;
17648;SDS011;8943;51.110;-4.158;2022-10-13T14:41:31;4.43;;;1.30;;
17648;SDS011;8943;51.110;-4.158;2022-10-13T14:44:00;4.30;;;1.23;;
17648;SDS011;8943;51.110;-4.158;2022-10-13T14:46:31;5.97;;;1.30;;
17648;SDS011;8943;51.110;-4.158;2022-10-13T14:48:59;4.83;;;1.00;;
17648;SDS011;8943;51.110;-4.158;2022-10-13T14:51:28;4.73;;;1.43;;
17648;SDS011;8943;51.110;-4.158;2022-10-13T14:53:58;4.67;;;1.27;;
17648;SDS011;8943;51.110;-4.158;2022-10-13T14:56:33;6.50;;;1.60;;
17648;SDS011;8943;51.110;-4.158;2022-10-13T14:59:02;3.87;;;1.10;;
17648;SDS011;8943;51.110;-4.158;2022-10-13T15:01:33;5.37;;;0.90;;
17648;SDS011;8943;51.110;-4.158;2022-10-13T15:04:01;2.47;;;1.37;;
17648;SDS011;8943;51.110;-4.158;2022-10-13T15:06:33;2.93;;;1.00;;
17648;SDS011;8943;51.110;-4.158;2022-10-13T15:09:07;3.53;;;1.10;;
17648;SDS011;8943;51.110;-4.158;2022-10-13T15:11:41;4.00;;;0.70;;
17648;SDS011;8943;51.110;-4.158;2022-10-13T15:14:14;3.90;;;1.00;;
17648;SDS011;8943;51.110;-4.158;2022-10-13T15:16:43;2.77;;;1.07;;
17648;SDS011;8943;51.110;-4.158;2022-10-13T15:19:13;4.03;;;1.03;;
17648;SDS011;8943;51.110;-4.158;2022-10-13T15:21:42;5.70;;;1.13;;
17648;SDS011;8943;51.110;-4.158;2022-10-13T15:24:11;3.43;;;1.20;;
17648;SDS011;8943;51.110;-4.158;2022-10-13T15:26:46;3.03;;;0.93;;
17648;SDS011;8943;51.110;-4.158;2022-10-13T15:29:23;3.70;;;0.70;;
17648;SDS011;8943;51.110;-4.158;2022-10-13T15:31:56;3.90;;;0.80;;
17648;SDS011;8943;51.110;-4.158;2022-10-13T15:34:40;2.77;;;0.83;;
17648;SDS011;8943;51.110;-4.158;2022-10-13T15:37:25;4.40;;;1.00;;
17648;SDS011;8943;51.110;-4.158;2022-10-13T15:40:22;1.57;;;0.90;;
17648;SDS011;8943;51.110;-4.158;2022-10-13T15:42:54;4.07;;;1.00;;
17648;SDS011;8943;51.110;-4.158;2022-10-13T15:45:23;3.10;;;1.00;;
17648;SDS011;8943;51.110;-4.158;2022-10-13T15:47:55;2.53;;;1.07;;
17648;SDS011;8943;51.110;-4.158;2022-10-13T15:50:33;4.97;;;1.03;;
17648;SDS011;8943;51.110;-4.158;2022-10-13T15:53:05;3.50;;;0.93;;
17648;SDS011;8943;51.110;-4.158;2022-10-13T15:55:34;3.23;;;1.00;;
17648;SDS011;8943;51.110;-4.158;2022-10-13T15:58:18;2.33;;;1.07;;
17648;SDS011;8943;51.110;-4.158;2022-10-13T16:00:50;3.90;;;1.17;;
17648;SDS011;8943;51.110;-4.158;2022-10-13T16:03:19;4.57;;;1.50;;
17648;SDS011;8943;51.110;-4.158;2022-10-13T16:05:47;3.00;;;1.03;;
17648;SDS011;8943;51.110;-4.158;2022-10-13T16:08:17;3.93;;;1.23;;
17648;SDS011;8943;51.110;-4.158;2022-10-13T16:10:45;5.03;;;1.20;;
17648;SDS011;8943;51.110;-4.158;2022-10-13T16:13:18;4.97;;;1.70;;
17648;SDS011;8943;51.110;-4.158;2022-10-13T16:15:55;3.47;;;1.33;;
17648;SDS011;8943;51.110;-4.158;2022-10-13T16:18:31;3.67;;;1.20;;
17648;SDS011;8943;51.110;-4.158;2022-10-13T16:21:08;4.40;;;1.30;;
17648;SDS011;8943;51.110;-4.158;2022-10-13T16:23:47;2.13;;;1.03;;
17648;SDS011;8943;51.110;-4.158;2022-10-13T16:26:22;2.50;;;0.90;;
17648;SDS011;8943;51.110;-4.158;2022-10-13T16:29:03;5.63;;;1.10;;
17648;SDS011;8943;51.110;-4.158;2022-10-13T16:31:31;5.57;;;1.40;;
17648;SDS011;8943;51.110;-4.158;2022-10-13T16:34:06;3.53;;;1.30;;
17648;SDS011;8943;51.110;-4.158;2022-10-13T16:36:42;3.33;;;1.23;;
17648;SDS011;8943;51.110;-4.158;2022-10-13T16:39:10;5.77;;;1.33;;
17648;SDS011;8943;51.110;-4.158;2022-10-13T16:41:39;5.13;;;1.57;;
17648;SDS011;8943;51.110;-4.158;2022-10-13T16:44:09;6.97;;;1.53;;
17648;SDS011;8943;51.110;-4.158;2022-10-13T16:46:41;4.07;;;1.20;;
17648;SDS011;8943;51.110;-4.158;2022-10-13T16:49:10;4.77;;;1.67;;
17648;SDS011;8943;51.110;-4.158;2022-10-13T16:51:39;2.73;;;1.20;;
17648;SDS011;8943;51.110;-4.158;2022-10-13T16:54:07;4.60;;;1.17;;
17648;SDS011;8943;51.110;-4.158;2022-10-13T16:56:35;7.07;;;1.77;;
17648;SDS011;8943;51.110;-4.158;2022-10-13T16:59:04;5.67;;;1.60;;
17648;SDS011;8943;51.110;-4.158;2022-10-13T17:01:34;4.70;;;1.70;;
17648;SDS011;8943;51.110;-4.158;2022-10-13T17:04:03;4.40;;;1.57;;
17648;SDS011;8943;51.110;-4.158;2022-10-13T17:06:31;3.63;;;1.70;;
17648;SDS011;8943;51.110;-4.158;2022-10-13T17:09:09;7.00;;;1.50;;
17648;SDS011;8943;51.110;-4.158;2022-10-13T17:11:39;4.93;;;1.93;;
17648;SDS011;8943;51.110;-4.158;2022-10-13T17:14:09;5.07;;;1.57;;
17648;SDS011;8943;51.110;-4.158;2022-10-13T17:16:39;9.30;;;2.00;;
17648;SDS011;8943;51.110;-4.158;2022-10-13T17:19:23;5.67;;;1.67;;
17648;SDS011;8943;51.110;-4.158;2022-10-13T17:21:52;5.33;;;1.87;;
17648;SDS011;8943;51.110;-4.158;2022-10-13T17:24:20;3.50;;;1.50;;
17648;SDS011;8943;51.110;-4.158;2022-10-13T17:26:49;5.17;;;1.80;;
17648;SDS011;8943;51.110;-4.158;2022-10-13T17:29:17;5.60;;;1.80;;
17648;SDS011;8943;51.110;-4.158;2022-10-13T17:31:47;6.27;;;2.00;;
17648;SDS011;8943;51.110;-4.158;2022-10-13T17:34:25;6.73;;;2.10;;
17648;SDS011;8943;51.110;-4.158;2022-10-13T17:36:54;5.20;;;2.00;;
17648;SDS011;8943;51.110;-4.158;2022-10-13T17:39:22;5.30;;;2.67;;
17648;SDS011;8943;51.110;-4.158;2022-10-13T17:41:50;6.50;;;2.73;;
17648;SDS011;8943;51.110;-4.158;2022-10-13T17:44:18;6.27;;;2.10;;
17648;SDS011;8943;51.110;-4.158;2022-10-13T17:46:48;4.33;;;1.73;;
17648;SDS011;8943;51.110;-4.158;2022-10-13T17:49:16;7.00;;;2.33;;
17648;SDS011;8943;51.110;-4.158;2022-10-13T17:51:44;6.77;;;3.00;;
17648;SDS011;8943;51.110;-4.158;2022-10-13T17:54:13;4.87;;;2.37;;
17648;SDS011;8943;51.110;-4.158;2022-10-13T17:56:42;9.30;;;2.70;;
17648;SDS011;8943;51.110;-4.158;2022-10-13T17:59:10;8.90;;;2.97;;
17648;SDS011;8943;51.110;-4.158;2022-10-13T18:01:39;8.00;;;3.20;;
17648;SDS011;8943;51.110;-4.158;2022-10-13T18:04:10;6.00;;;2.80;;
17648;SDS011;8943;51.110;-4.158;2022-10-13T18:06:40;5.90;;;2.50;;
17648;SDS011;8943;51.110;-4.158;2022-10-13T18:09:10;5.43;;;2.67;;
17648;SDS011;8943;51.110;-4.158;2022-10-13T18:11:40;6.03;;;2.17;;
17648;SDS011;8943;51.110;-4.158;2022-10-13T18:14:15;6.50;;;2.50;;
17648;SDS011;8943;51.110;-4.158;2022-10-13T18:16:43;6.83;;;2.30;;
17648;SDS011;8943;51.110;-4.158;2022-10-13T18:19:13;4.30;;;1.90;;
17648;SDS011;8943;51.110;-4.158;2022-10-13T18:21:42;5.17;;;2.40;;
17648;SDS011;8943;51.110;-4.158;2022-10-13T18:24:10;5.47;;;2.10;;
17648;SDS011;8943;51.110;-4.158;2022-10-13T18:26:38;6.50;;;3.97;;
17648;SDS011;8943;51.110;-4.158;2022-10-13T18:29:07;10.80;;;4.70;;
17648;SDS011;8943;51.110;-4.158;2022-10-13T18:31:38;9.03;;;4.90;;
17648;SDS011;8943;51.110;-4.158;2022-10-13T18:34:10;11.07;;;7.87;;
17648;SDS011;8943;51.110;-4.158;2022-10-13T18:36:42;10.60;;;6.77;;
17648;SDS011;8943;51.110;-4.158;2022-10-13T18:39:13;12.40;;;6.93;;
17648;SDS011;8943;51.110;-4.158;2022-10-13T18:41:43;8.57;;;5.70;;
17648;SDS011;8943;51.110;-4.158;2022-10-13T18:44:12;10.23;;;6.93;;
17648;SDS011;8943;51.110;-4.158;2022-10-13T18:46:40;12.93;;;9.43;;
17648;SDS011;8943;51.110;-4.158;2022-10-13T18:49:09;17.80;;;11.50;;
17648;SDS011;8943;51.110;-4.158;2022-10-13T18:51:39;11.83;;;7.67;;
17648;SDS011;8943;51.110;-4.158;2022-10-13T18:54:09;9.23;;;5.37;;
17648;SDS011;8943;51.110;-4.158;2022-10-13T18:56:38;18.50;;;11.00;;
17648;SDS011;8943;51.110;-4.158;2022-10-13T18:59:06;19.50;;;7.50;;
17648;SDS011;8943;51.110;-4.158;2022-10-13T19:01:35;9.63;;;4.97;;
17648;SDS011;8943;51.110;-4.158;2022-10-13T19:04:07;17.40;;;8.77;;
17648;SDS011;8943;51.110;-4.158;2022-10-13T19:06:40;14.47;;;8.83;;
17648;SDS011;8943;51.110;-4.158;2022-10-13T19:09:12;12.73;;;8.60;;
17648;SDS011;8943;51.110;-4.158;2022-10-13T19:11:53;14.80;;;7.90;;
17648;SDS011;8943;51.110;-4.158;2022-10-13T19:14:22;11.60;;;7.97;;
17648;SDS011;8943;51.110;-4.158;2022-10-13T19:16:51;7.97;;;4.70;;
17648;SDS011;8943;51.110;-4.158;2022-10-13T19:19:24;14.80;;;7.00;;
17648;SDS011;8943;51.110;-4.158;2022-10-13T19:21:53;11.53;;;7.03;;
17648;SDS011;8943;51.110;-4.158;2022-10-13T19:24:23;11.53;;;6.97;;
17648;SDS011;8943;51.110;-4.158;2022-10-13T19:26:51;11.20;;;7.00;;
17648;SDS011;8943;51.110;-4.158;2022-10-13T19:29:21;10.70;;;5.90;;
17648;SDS011;8943;51.110;-4.158;2022-10-13T19:31:49;18.20;;;7.70;;
17648;SDS011;8943;51.110;-4.158;2022-10-13T19:34:18;11.27;;;6.10;;
17648;SDS011;8943;51.110;-4.158;2022-10-13T19:36:46;14.60;;;6.77;;
17648;SDS011;8943;51.110;-4.158;2022-10-13T19:39:16;10.63;;;5.80;;
17648;SDS011;8943;51.110;-4.158;2022-10-13T19:41:48;15.90;;;11.17;;
17648;SDS011;8943;51.110;-4.158;2022-10-13T19:44:18;15.03;;;11.37;;
17648;SDS011;8943;51.110;-4.158;2022-10-13T19:46:49;17.37;;;11.70;;
17648;SDS011;8943;51.110;-4.158;2022-10-13T19:49:19;9.50;;;5.43;;
17648;SDS011;8943;51.110;-4.158;2022-10-13T19:51:48;11.53;;;6.87;;
17648;SDS011;8943;51.110;-4.158;2022-10-13T19:54:19;14.03;;;8.40;;
17648;SDS011;8943;51.110;-4.158;2022-10-13T19:56:49;17.10;;;8.70;;
17648;SDS011;8943;51.110;-4.158;2022-10-13T19:59:19;9.93;;;6.47;;
17648;SDS011;8943;51.110;-4.158;2022-10-13T20:01:47;6.63;;;5.47;;
17648;SDS011;8943;51.110;-4.158;2022-10-13T20:04:16;8.90;;;4.17;;
17648;SDS011;8943;51.110;-4.158;2022-10-13T20:06:46;6.73;;;3.87;;
17648;SDS011;8943;51.110;-4.158;2022-10-13T20:09:15;20.37;;;11.60;;
17648;SDS011;8943;51.110;-4.158;2022-10-13T20:11:44;24.57;;;13.77;;
17648;SDS011;8943;51.110;-4.158;2022-10-13T20:14:16;19.93;;;11.20;;
17648;SDS011;8943;51.110;-4.158;2022-10-13T20:16:45;16.50;;;9.33;;
17648;SDS011;8943;51.110;-4.158;2022-10-13T20:19:14;16.03;;;9.80;;
17648;SDS011;8943;51.110;-4.158;2022-10-13T20:21:45;21.00;;;13.43;;
17648;SDS011;8943;51.110;-4.158;2022-10-13T20:24:17;19.53;;;11.87;;
17648;SDS011;8943;51.110;-4.158;2022-10-13T20:26:46;18.43;;;10.90;;
17648;SDS011;8943;51.110;-4.158;2022-10-13T20:29:14;13.70;;;9.27;;
17648;SDS011;8943;51.110;-4.158;2022-10-13T20:31:44;14.57;;;8.40;;
17648;SDS011;8943;51.110;-4.158;2022-10-13T20:34:12;7.30;;;5.13;;
17648;SDS011;8943;51.110;-4.158;2022-10-13T20:36:42;7.80;;;4.67;;
17648;SDS011;8943;51.110;-4.158;2022-10-13T20:39:10;8.40;;;5.23;;
17648;SDS011;8943;51.110;-4.158;2022-10-13T20:41:38;10.07;;;5.63;;
17648;SDS011;8943;51.110;-4.158;2022-10-13T20:44:07;11.13;;;6.27;;
17648;SDS011;8943;51.110;-4.158;2022-10-13T20:46:36;6.50;;;4.03;;
17648;SDS011;8943;51.110;-4.158;2022-10-13T20:49:06;8.53;;;6.07;;
17648;SDS011;8943;51.110;-4.158;2022-10-13T20:51:38;8.00;;;6.20;;
17648;SDS011;8943;51.110;-4.158;2022-10-13T20:54:08;11.67;;;5.33;;
17648;SDS011;8943;51.110;-4.158;2022-10-13T20:56:37;8.43;;;5.67;;
17648;SDS011;8943;51.110;-4.158;2022-10-13T20:59:06;12.17;;;6.33;;
17648;SDS011;8943;51.110;-4.158;2022-10-13T21:01:36;8.77;;;6.40;;
17648;SDS011;8943;51.110;-4.158;2022-10-13T21:04:05;7.20;;;4.80;;
17648;SDS011;8943;51.110;-4.158;2022-10-13T21:06:35;8.03;;;4.80;;
17648;SDS011;8943;51.110;-4.158;2022-10-13T21:09:04;7.47;;;4.50;;
17648;SDS011;8943;51.110;-4.158;2022-10-13T21:11:33;7.73;;;5.23;;
17648;SDS011;8943;51.110;-4.158;2022-10-13T21:14:01;7.47;;;4.10;;
17648;SDS011;8943;51.110;-4.158;2022-10-13T21:16:32;6.67;;;4.00;;
17648;SDS011;8943;51.110;-4.158;2022-10-13T21:19:01;7.57;;;4.43;;
17648;SDS011;8943;51.110;-4.158;2022-10-13T21:21:32;6.63;;;4.37;;
17648;SDS011;8943;51.110;-4.158;2022-10-13T21:24:02;7.63;;;4.23;;
17648;SDS011;8943;51.110;-4.158;2022-10-13T21:26:33;7.53;;;4.30;;
17648;SDS011;8943;51.110;-4.158;2022-10-13T21:29:02;6.03;;;4.60;;
17648;SDS011;8943;51.110;-4.158;2022-10-13T21:31:31;11.23;;;6.23;;
17648;SDS011;8943;51.110;-4.158;2022-10-13T21:34:00;7.53;;;4.80;;
17648;SDS011;8943;51.110;-4.158;2022-10-13T21:36:29;5.33;;;4.37;;
17648;SDS011;8943;51.110;-4.158;2022-10-13T21:39:02;5.77;;;4.30;;
17648;SDS011;8943;51.110;-4.158;2022-10-13T21:41:53;6.30;;;4.87;;
17648;SDS011;8943;51.110;-4.158;2022-10-13T21:44:22;8.07;;;4.30;;
17648;SDS011;8943;51.110;-4.158;2022-10-13T21:46:53;8.00;;;4.37;;
17648;SDS011;8943;51.110;-4.158;2022-10-13T21:49:21;6.73;;;4.00;;
17648;SDS011;8943;51.110;-4.158;2022-10-13T21:51:51;6.57;;;4.30;;
17648;SDS011;8943;51.110;-4.158;2022-10-13T21:54:19;8.70;;;5.30;;
17648;SDS011;8943;51.110;-4.158;2022-10-13T21:56:48;6.27;;;4.60;;
17648;SDS011;8943;51.110;-4.158;2022-10-13T21:59:17;7.07;;;4.00;;
17648;SDS011;8943;51.110;-4.158;2022-10-13T22:01:45;6.67;;;3.90;;
17648;SDS011;8943;51.110;-4.158;2022-10-13T22:04:15;7.43;;;3.63;;
17648;SDS011;8943;51.110;-4.158;2022-10-13T22:06:48;6.47;;;3.50;;
17648;SDS011;8943;51.110;-4.158;2022-10-13T22:09:22;5.80;;;3.40;;
17648;SDS011;8943;51.110;-4.158;2022-10-13T22:11:51;4.50;;;3.70;;
17648;SDS011;8943;51.110;-4.158;2022-10-13T22:14:23;6.10;;;4.03;;
17648;SDS011;8943;51.110;-4.158;2022-10-13T22:16:57;5.93;;;3.80;;
17648;SDS011;8943;51.110;-4.158;2022-10-13T22:19:31;7.83;;;4.20;;
17648;SDS011;8943;51.110;-4.158;2022-10-13T22:22:00;5.60;;;3.80;;
17648;SDS011;8943;51.110;-4.158;2022-10-13T22:24:30;5.33;;;3.70;;
17648;SDS011;8943;51.110;-4.158;2022-10-13T22:27:01;4.07;;;3.20;;
17648;SDS011;8943;51.110;-4.158;2022-10-13T22:29:38;5.47;;;3.13;;
17648;SDS011;8943;51.110;-4.158;2022-10-13T22:32:08;5.57;;;3.73;;
17648;SDS011;8943;51.110;-4.158;2022-10-13T22:34:38;6.07;;;3.93;;
17648;SDS011;8943;51.110;-4.158;2022-10-13T22:37:09;5.17;;;3.87;;
17648;SDS011;8943;51.110;-4.158;2022-10-13T22:39:40;5.17;;;3.43;;
17648;SDS011;8943;51.110;-4.158;2022-10-13T22:42:08;7.00;;;3.67;;
17648;SDS011;8943;51.110;-4.158;2022-10-13T22:44:40;6.10;;;4.00;;
17648;SDS011;8943;51.110;-4.158;2022-10-13T22:47:09;7.80;;;3.70;;
17648;SDS011;8943;51.110;-4.158;2022-10-13T22:49:37;6.00;;;3.87;;
17648;SDS011;8943;51.110;-4.158;2022-10-13T22:52:06;5.07;;;3.73;;
17648;SDS011;8943;51.110;-4.158;2022-10-13T22:54:35;5.80;;;3.93;;
17648;SDS011;8943;51.110;-4.158;2022-10-13T22:57:05;6.23;;;3.50;;
17648;SDS011;8943;51.110;-4.158;2022-10-13T22:59:33;4.40;;;3.07;;
17648;SDS011;8943;51.110;-4.158;2022-10-13T23:02:02;6.90;;;3.27;;
17648;SDS011;8943;51.110;-4.158;2022-10-13T23:04:30;8.37;;;4.30;;
17648;SDS011;8943;51.110;-4.158;2022-10-13T23:06:58;6.07;;;3.90;;
17648;SDS011;8943;51.110;-4.158;2022-10-13T23:09:27;8.57;;;3.60;;
17648;SDS011;8943;51.110;-4.158;2022-10-13T23:11:56;4.27;;;3.23;;
17648;SDS011;8943;51.110;-4.158;2022-10-13T23:14:26;8.33;;;4.17;;
17648;SDS011;8943;51.110;-4.158;2022-10-13T23:16:55;5.87;;;4.03;;
17648;SDS011;8943;51.110;-4.158;2022-10-13T23:19:23;4.93;;;3.57;;
17648;SDS011;8943;51.110;-4.158;2022-10-13T23:21:52;9.20;;;3.83;;
17648;SDS011;8943;51.110;-4.158;2022-10-13T23:24:21;6.53;;;4.07;;
17648;SDS011;8943;51.110;-4.158;2022-10-13T23:26:49;5.63;;;3.53;;